Back to Top

Language: 

My Weather Underground Personal Weather Station Historical Data with Graphs...

Delerius Weather Station Historical Data
Daily Summary for November 15, 2017 Units:  Metric    English   Both
« Previous Day
Next Day »
Daily Weekly Monthly Yearly Custom
  High: Low: Average:
Temperature: 11.2 °C 8.5 °C 9.9 °C
Dew Point: 9.8 °C 5.4 °C 7.9 °C
Humidity: 95 % 72 % 88 %
Wind Speed: 12.9 km/h 0 km/h 2.4 km/h
Wind Gust: 19.3 km/h - -
Wind:- - South
Pressure: 1024.6 hPa 1019.9 hPa -
Precipitation: 0 mm    
Historical Graphs
 
 
Tabular Data for November 15, 2017
Time Temperature Dew Point Pressure Wind Wind Speed Wind Gust Humidity Rainfall Rate (Hourly) solar Conditions
00:03 11.2 °C 9.8 °C 1021.2 hPa West 8 km/h 16.1 km/h 91 % 0 mm 0 W/m2
00:08 11.2 °C 9.8 °C 1021.2 hPa West 8 km/h 12.9 km/h 91 % 0 mm 0 W/m2
00:13 11.2 °C 9.8 °C 1021.2 hPa West 11.3 km/h 16.1 km/h 91 % 0 mm 0 W/m2
00:18 11.2 °C 9.8 °C 1021.2 hPa West 6.4 km/h 12.9 km/h 91 % 0 mm 0 W/m2
00:23 11.2 °C 9.8 °C 1021.2 hPa West 4.8 km/h 9.7 km/h 91 % 0 mm 0 W/m2
00:28 11.1 °C 9.7 °C 1020.9 hPa West 11.3 km/h 17.7 km/h 91 % 0 mm 0 W/m2
00:33 11.1 °C 9.7 °C 1020.9 hPa WSW 6.4 km/h 11.3 km/h 91 % 0 mm 0 W/m2
00:38 11.1 °C 9.7 °C 1021.2 hPa WSW 6.4 km/h 12.9 km/h 91 % 0 mm 0 W/m2
00:43 10.9 °C 9.3 °C 1021.2 hPa WSW 3.2 km/h 11.3 km/h 90 % 0 mm 0 W/m2
00:48 10.9 °C 9.5 °C 1020.9 hPa SW 6.4 km/h 12.9 km/h 91 % 0 mm 0 W/m2
00:53 10.8 °C 9.4 °C 1020.9 hPa WSW 1.6 km/h 8 km/h 91 % 0 mm 0 W/m2
00:58 10.7 °C 9.3 °C 1020.9 hPa Calm   3.2 km/h 91 % 0 mm 0 W/m2
01:03 10.7 °C 9.3 °C 1021.2 hPa Calm     91 % 0 mm 0 W/m2
01:08 10.6 °C 9.2 °C 1021.2 hPa West 3.2 km/h 9.7 km/h 91 % 0 mm 0 W/m2
01:13 10.5 °C 9.1 °C 1021.2 hPa WNW 3.2 km/h 8 km/h 91 % 0 mm 0 W/m2
01:18 10.5 °C 9.3 °C 1021.2 hPa WNW 4.8 km/h 9.7 km/h 92 % 0 mm 0 W/m2
01:23 10.4 °C 9.2 °C 1021.2 hPa WNW 8 km/h 11.3 km/h 92 % 0 mm 0 W/m2
01:28 10.5 °C 9.3 °C 1021.2 hPa West 6.4 km/h 9.7 km/h 92 % 0 mm 0 W/m2
01:33 10.5 °C 9.3 °C 1021.2 hPa West 4.8 km/h 9.7 km/h 92 % 0 mm 0 W/m2
01:38 10.6 °C 9.3 °C 1021.2 hPa West 3.2 km/h 8 km/h 92 % 0 mm 0 W/m2
01:43 10.6 °C 9.3 °C 1021.2 hPa WSW 1.6 km/h 8 km/h 92 % 0 mm 0 W/m2
01:48 10.6 °C 9.3 °C 1021.2 hPa West 4.8 km/h 11.3 km/h 92 % 0 mm 0 W/m2
01:53 10.6 °C 9.3 °C 1021.2 hPa West 8 km/h 12.9 km/h 92 % 0 mm 0 W/m2
01:58 10.7 °C 9.6 °C 1021.2 hPa West 11.3 km/h 17.7 km/h 93 % 0 mm 0 W/m2
02:03 10.8 °C 9.7 °C 1021.2 hPa West 12.9 km/h 19.3 km/h 93 % 0 mm 0 W/m2
02:08 10.9 °C 9.7 °C 1021.6 hPa West 9.7 km/h 14.5 km/h 92 % 0 mm 0 W/m2
02:12 11 °C 9.7 °C 1021.6 hPa West 9.7 km/h 16.1 km/h 92 % 0 mm 0 W/m2
02:17 11 °C 9.7 °C 1021.6 hPa WNW 6.4 km/h 12.9 km/h 92 % 0 mm 0 W/m2
02:22 11 °C 9.7 °C 1021.6 hPa WNW 11.3 km/h 16.1 km/h 92 % 0 mm 0 W/m2
02:27 10.9 °C 9.7 °C 1021.6 hPa WNW 4.8 km/h 11.3 km/h 92 % 0 mm 0 W/m2
02:32 10.9 °C 9.7 °C 1021.6 hPa WNW 8 km/h 12.9 km/h 92 % 0 mm 0 W/m2
02:37 10.9 °C 9.7 °C 1021.6 hPa WNW 8 km/h 11.3 km/h 92 % 0 mm 0 W/m2
02:42 10.9 °C 9.7 °C 1021.6 hPa WNW 9.7 km/h 16.1 km/h 92 % 0 mm 0 W/m2
02:47 10.9 °C 9.7 °C 1021.6 hPa WNW 9.7 km/h 14.5 km/h 92 % 0 mm 0 W/m2
02:52 10.9 °C 9.7 °C 1021.6 hPa WNW 8 km/h 12.9 km/h 92 % 0 mm 0 W/m2
02:57 10.9 °C 9.8 °C 1021.6 hPa WNW 6.4 km/h 9.7 km/h 93 % 0 mm 0 W/m2
03:02 10.8 °C 9.7 °C 1021.9 hPa WNW 4.8 km/h 11.3 km/h 93 % 0 mm 0 W/m2
03:07 10.8 °C 9.7 °C 1021.9 hPa NW 6.4 km/h 12.9 km/h 93 % 0 mm 0 W/m2
03:12 10.8 °C 9.6 °C 1021.9 hPa NNE 12.9 km/h 19.3 km/h 92 % 0 mm 0 W/m2
03:17 10.5 °C 9.3 °C 1022.2 hPa NNE 6.4 km/h 14.5 km/h 92 % 0 mm 0 W/m2
03:22 10.2 °C 8.9 °C 1022.2 hPa NNE 11.3 km/h 17.7 km/h 92 % 0 mm 0 W/m2
03:25 10 °C 8.8 °C 1021.9 hPa NNE 11.3 km/h 16.1 km/h 92 % 0 mm 0 W/m2
03:30 9.9 °C 8.8 °C 1022.2 hPa North 9.7 km/h 16.1 km/h 93 % 0 mm 0 W/m2
03:32 9.9 °C 8.8 °C 1022.2 hPa North 11.3 km/h 16.1 km/h 93 % 0 mm 0 W/m2
03:36 9.7 °C 8.6 °C 1021.9 hPa NNE 11.3 km/h 16.1 km/h 93 % 0 mm 0 W/m2
03:42 9.6 °C 8.5 °C 1021.9 hPa NNE 6.4 km/h 12.9 km/h 93 % 0 mm 0 W/m2
03:47 9.6 °C 8.5 °C 1021.9 hPa NNE 8 km/h 11.3 km/h 93 % 0 mm 0 W/m2
03:52 9.5 °C 8.6 °C 1021.9 hPa North 8 km/h 12.9 km/h 94 % 0 mm 0 W/m2
03:57 9.4 °C 8.5 °C 1021.9 hPa North 9.7 km/h 16.1 km/h 94 % 0 mm 0 W/m2
04:02 9.4 °C 8.5 °C 1022.2 hPa NNE 6.4 km/h 11.3 km/h 94 % 0 mm 0 W/m2
04:07 9.4 °C 8.5 °C 1021.9 hPa NNE 8 km/h 12.9 km/h 94 % 0 mm 0 W/m2
04:12 9.4 °C 8.5 °C 1022.2 hPa North 9.7 km/h 12.9 km/h 94 % 0 mm 0 W/m2
04:17 9.4 °C 8.5 °C 1022.2 hPa NNE 4.8 km/h 9.7 km/h 94 % 0 mm 0 W/m2
04:22 9.3 °C 8.4 °C 1022.2 hPa North 6.4 km/h 12.9 km/h 94 % 0 mm 0 W/m2
04:27 9.3 °C 8.4 °C 1022.2 hPa NNE 11.3 km/h 16.1 km/h 94 % 0 mm 0 W/m2
04:32 9.3 °C 8.4 °C 1022.2 hPa NE 4.8 km/h 12.9 km/h 94 % 0 mm 0 W/m2
04:37 9.3 °C 8.4 °C 1022.2 hPa NNE 6.4 km/h 9.7 km/h 94 % 0 mm 0 W/m2
04:42 9.3 °C 8.4 °C 1022.2 hPa NNE 1.6 km/h 6.4 km/h 94 % 0 mm 0 W/m2
04:47 9.3 °C 8.4 °C 1022.6 hPa North 3.2 km/h 12.9 km/h 94 % 0 mm 0 W/m2
04:52 9.3 °C 8.2 °C 1022.6 hPa NNW 6.4 km/h 11.3 km/h 93 % 0 mm 0 W/m2
04:57 9.3 °C 8.2 °C 1022.6 hPa Calm   4.8 km/h 93 % 0 mm 0 W/m2
05:02 9.3 °C 8.2 °C 1022.6 hPa NNW 3.2 km/h 11.3 km/h 93 % 0 mm 0 W/m2
05:07 9.2 °C 8.1 °C 1022.6 hPa NNW 3.2 km/h 8 km/h 93 % 0 mm 0 W/m2
05:12 9.2 °C 8.3 °C 1022.9 hPa NW 3.2 km/h 8 km/h 94 % 0 mm 0 W/m2
05:17 9.2 °C 8.3 °C 1022.9 hPa NNW 3.2 km/h 11.3 km/h 94 % 0 mm 0 W/m2
05:22 9.2 °C 8.1 °C 1022.9 hPa North 3.2 km/h 9.7 km/h 93 % 0 mm 0 W/m2
05:27 9.1 °C 8 °C 1022.9 hPa North 1.6 km/h 6.4 km/h 93 % 0 mm 0 W/m2
05:32 9.1 °C 8 °C 1022.9 hPa Calm   1.6 km/h 93 % 0 mm 0 W/m2
05:37 9.1 °C 8 °C 1022.9 hPa Calm     93 % 0 mm 0 W/m2
05:42 9.1 °C 8 °C 1022.9 hPa Calm     93 % 0 mm 0 W/m2
05:47 9.1 °C 8 °C 1022.9 hPa Calm   1.6 km/h 93 % 0 mm 0 W/m2
05:52 9.1 °C 8 °C 1022.9 hPa Calm     93 % 0 mm 0 W/m2
05:57 9 °C 7.9 °C 1022.9 hPa Calm   1.6 km/h 93 % 0 mm 0 W/m2
06:02 9 °C 7.9 °C 1023.2 hPa North 3.2 km/h 6.4 km/h 93 % 0 mm 0 W/m2
06:07 9 °C 8.1 °C 1023.2 hPa WNW 4.8 km/h 8 km/h 94 % 0 mm 0 W/m2
06:12 9 °C 8.1 °C 1023.2 hPa Calm     94 % 0 mm 0 W/m2
06:17 9 °C 8.1 °C 1022.9 hPa Calm     94 % 0 mm 0 W/m2
06:22 9 °C 8.1 °C 1022.9 hPa Calm     94 % 0 mm 0 W/m2
06:27 8.9 °C 8 °C 1023.2 hPa Calm     94 % 0 mm 0 W/m2
06:32 8.9 °C 7.8 °C 1023.2 hPa Calm     93 % 0 mm 0 W/m2
06:37 8.8 °C 7.7 °C 1023.2 hPa Calm     93 % 0 mm 0 W/m2
06:42 8.7 °C 7.6 °C 1023.2 hPa Calm   3.2 km/h 93 % 0 mm 0 W/m2
06:47 8.7 °C 7.6 °C 1023.2 hPa Calm     93 % 0 mm 0 W/m2
06:52 8.6 °C 7.6 °C 1023.2 hPa Calm     93 % 0 mm 0 W/m2
06:57 8.6 °C 7.7 °C 1023.2 hPa Calm     94 % 0 mm 0 W/m2
07:02 8.6 °C 7.7 °C 1023.2 hPa Calm   1.6 km/h 94 % 0 mm 0 W/m2
07:08 8.6 °C 7.7 °C 1023.6 hPa Calm   3.2 km/h 94 % 0 mm 0 W/m2
07:13 8.6 °C 7.7 °C 1023.6 hPa WNW 1.6 km/h 8 km/h 94 % 0 mm 0 W/m2
07:18 8.6 °C 7.7 °C 1023.2 hPa Calm   3.2 km/h 94 % 0 mm 0 W/m2
07:23 8.6 °C 7.7 °C 1023.6 hPa Calm   1.6 km/h 94 % 0 mm 0 W/m2
07:28 8.6 °C 7.7 °C 1023.6 hPa Calm     94 % 0 mm 0 W/m2
07:33 8.6 °C 7.7 °C 1023.6 hPa Calm     94 % 0 mm 0 W/m2
07:38 8.6 °C 7.7 °C 1023.6 hPa Calm     94 % 0 mm 5 W/m2
07:43 8.6 °C 7.7 °C 1023.6 hPa Calm     94 % 0 mm 7 W/m2
07:48 8.5 °C 7.6 °C 1023.6 hPa Calm     94 % 0 mm 9 W/m2
07:53 8.5 °C 7.6 °C 1023.6 hPa Calm     94 % 0 mm 12 W/m2
07:58 8.5 °C 7.6 °C 1023.6 hPa Calm     94 % 0 mm 12 W/m2
08:03 8.5 °C 7.6 °C 1023.9 hPa Calm     94 % 0 mm 12 W/m2
08:08 8.5 °C 7.6 °C 1023.9 hPa Calm     94 % 0 mm 14 W/m2
08:13 8.5 °C 7.7 °C 1023.9 hPa Calm     95 % 0 mm 14 W/m2
08:18 8.5 °C 7.7 °C 1023.9 hPa Calm     95 % 0 mm 19 W/m2
08:23 8.5 °C 7.7 °C 1023.9 hPa Calm     95 % 0 mm 21 W/m2
08:28 8.6 °C 7.8 °C 1023.9 hPa Calm     95 % 0 mm 23 W/m2
08:33 8.6 °C 7.8 °C 1023.9 hPa Calm     95 % 0 mm 28 W/m2
08:38 8.6 °C 7.8 °C 1023.9 hPa Calm   3.2 km/h 95 % 0 mm 28 W/m2
08:43 8.7 °C 7.9 °C 1024.3 hPa WNW 1.6 km/h 4.8 km/h 95 % 0 mm 32 W/m2
08:48 8.7 °C 7.9 °C 1023.9 hPa Calm     95 % 0 mm 33 W/m2
08:53 8.7 °C 7.9 °C 1023.9 hPa Calm     95 % 0 mm 35 W/m2
08:58 8.7 °C 7.9 °C 1023.9 hPa Calm   3.2 km/h 95 % 0 mm 35 W/m2
09:03 8.7 °C 7.9 °C 1023.9 hPa Calm     95 % 0 mm 33 W/m2
09:08 8.7 °C 7.9 °C 1024.3 hPa Calm     95 % 0 mm 40 W/m2
09:13 8.8 °C 8.1 °C 1023.9 hPa Calm     95 % 0 mm 47 W/m2
09:18 8.8 °C 8.1 °C 1023.9 hPa Calm   4.8 km/h 95 % 0 mm 60 W/m2
09:23 8.7 °C 7.8 °C 1023.9 hPa Calm   1.6 km/h 94 % 0 mm 63 W/m2
09:28 8.7 °C 7.8 °C 1023.9 hPa Calm   1.6 km/h 94 % 0 mm 62 W/m2
09:33 8.6 °C 7.4 °C 1023.9 hPa Calm   3.2 km/h 92 % 0 mm 70 W/m2
09:38 8.7 °C 7.3 °C 1023.9 hPa Calm   1.6 km/h 91 % 0 mm 77 W/m2
09:43 8.7 °C 7 °C 1023.9 hPa Calm   1.6 km/h 89 % 0 mm 84 W/m2
09:48 8.8 °C 6.8 °C 1023.9 hPa ENE 3.2 km/h 8 km/h 87 % 0 mm 86 W/m2
09:53 9 °C 6.8 °C 1023.9 hPa East 1.6 km/h 6.4 km/h 86 % 0 mm 95 W/m2
09:58 9.1 °C 6.7 °C 1024.3 hPa Calm   1.6 km/h 85 % 0 mm 97 W/m2
10:03 9.2 °C 6.6 °C 1024.3 hPa East 1.6 km/h 3.2 km/h 84 % 0 mm 95 W/m2
10:08 9.4 °C 6.7 °C 1024.3 hPa Calm   1.6 km/h 83 % 0 mm 93 W/m2
10:14 9.5 °C 6.8 °C 1024.3 hPa Calm     83 % 0 mm 98 W/m2
10:19 9.6 °C 6.5 °C 1024.3 hPa Calm   1.6 km/h 81 % 0 mm 86 W/m2
10:24 9.7 °C 6.6 °C 1024.3 hPa Calm   1.6 km/h 81 % 0 mm 88 W/m2
10:29 9.7 °C 6.6 °C 1024.3 hPa Calm     81 % 0 mm 84 W/m2
10:34 9.8 °C 6.3 °C 1024.3 hPa Calm   3.2 km/h 79 % 0 mm 95 W/m2
10:39 9.8 °C 5.9 °C 1024.3 hPa Calm     77 % 0 mm 105 W/m2
10:44 9.8 °C 5.9 °C 1024.3 hPa Calm     77 % 0 mm 114 W/m2
10:49 9.9 °C 5.9 °C 1024.3 hPa Calm     76 % 0 mm 98 W/m2
10:54 10 °C 6.2 °C 1024.3 hPa Calm     77 % 0 mm 104 W/m2
10:59 10.1 °C 6.2 °C 1024.3 hPa Calm     77 % 0 mm 81 W/m2
11:04 10.1 °C 6.1 °C 1024.3 hPa Calm     76 % 0 mm 100 W/m2
11:09 10.1 °C 5.7 °C 1024.3 hPa Calm     74 % 0 mm 93 W/m2
11:14 10.2 °C 5.8 °C 1024.6 hPa Calm     74 % 0 mm 93 W/m2
11:19 10.2 °C 5.8 °C 1024.3 hPa Calm     74 % 0 mm 98 W/m2
11:24 10.2 °C 5.6 °C 1024.3 hPa Calm     73 % 0 mm 90 W/m2
11:29 10.2 °C 5.8 °C 1024.3 hPa Calm   1.6 km/h 74 % 0 mm 93 W/m2
11:34 10.3 °C 5.9 °C 1024.3 hPa Calm     74 % 0 mm 93 W/m2
11:39 10.3 °C 5.9 °C 1023.9 hPa Calm   3.2 km/h 74 % 0 mm 98 W/m2
11:44 10.3 °C 5.9 °C 1024.3 hPa Calm   3.2 km/h 74 % 0 mm 95 W/m2
11:49 10.3 °C 5.9 °C 1024.3 hPa Calm     74 % 0 mm 91 W/m2
11:54 10.3 °C 5.7 °C 1024.3 hPa Calm     73 % 0 mm 98 W/m2
11:59 10.3 °C 5.4 °C 1023.9 hPa Calm     72 % 0 mm 105 W/m2
12:04 10.3 °C 5.4 °C 1024.3 hPa Calm     72 % 0 mm 100 W/m2
12:09 10.4 °C 5.8 °C 1023.9 hPa Calm     73 % 0 mm 95 W/m2
12:14 10.5 °C 6.1 °C 1024.3 hPa Calm     74 % 0 mm 84 W/m2
12:19 10.5 °C 6.1 °C 1023.9 hPa Calm     74 % 0 mm 93 W/m2
12:24 10.6 °C 6.3 °C 1023.9 hPa Calm     75 % 0 mm 93 W/m2
12:29 10.6 °C 6.3 °C 1023.9 hPa Calm     75 % 0 mm 104 W/m2
12:34 10.6 °C 6.3 °C 1023.9 hPa East 1.6 km/h 6.4 km/h 75 % 0 mm 104 W/m2
12:39 10.6 °C 6.3 °C 1023.6 hPa Calm   1.6 km/h 75 % 0 mm 105 W/m2
12:44 10.6 °C 6.6 °C 1023.6 hPa East 1.6 km/h 3.2 km/h 76 % 0 mm 111 W/m2
12:49 10.6 °C 6.3 °C 1023.6 hPa Calm   3.2 km/h 75 % 0 mm 105 W/m2
12:54 10.6 °C 6.6 °C 1023.9 hPa Calm   3.2 km/h 76 % 0 mm 98 W/m2
12:59 10.6 °C 6.2 °C 1023.6 hPa East 1.6 km/h 3.2 km/h 74 % 0 mm 95 W/m2
13:04 10.6 °C 5.9 °C 1023.6 hPa ENE 1.6 km/h 8 km/h 73 % 0 mm 95 W/m2
13:09 10.5 °C 6.1 °C 1023.6 hPa East 1.6 km/h 6.4 km/h 74 % 0 mm 97 W/m2
13:14 10.5 °C 6.1 °C 1023.6 hPa ESE 4.8 km/h 8 km/h 74 % 0 mm 98 W/m2
13:19 10.5 °C 6.1 °C 1023.6 hPa ESE 3.2 km/h 8 km/h 74 % 0 mm 100 W/m2
13:24 10.6 °C 6.2 °C 1023.2 hPa SE 1.6 km/h 4.8 km/h 74 % 0 mm 104 W/m2
13:29 10.6 °C 6.2 °C 1023.2 hPa Calm   3.2 km/h 74 % 0 mm 114 W/m2
13:34 10.6 °C 6.2 °C 1023.6 hPa Calm   3.2 km/h 74 % 0 mm 97 W/m2
13:39 10.6 °C 6.2 °C 1023.2 hPa East 1.6 km/h 6.4 km/h 74 % 0 mm 100 W/m2
13:44 10.6 °C 6.3 °C 1023.2 hPa Calm   3.2 km/h 75 % 0 mm 98 W/m2
13:49 10.7 °C 6.4 °C 1023.6 hPa Calm     75 % 0 mm 97 W/m2
13:54 10.7 °C 6.4 °C 1023.6 hPa Calm     75 % 0 mm 88 W/m2
13:59 10.8 °C 6.7 °C 1023.2 hPa Calm     76 % 0 mm 86 W/m2
14:04 10.8 °C 6.7 °C 1023.2 hPa Calm     76 % 0 mm 81 W/m2
14:09 10.8 °C 6.6 °C 1023.2 hPa East 1.6 km/h 4.8 km/h 75 % 0 mm 88 W/m2
14:14 10.8 °C 6.7 °C 1023.2 hPa East 1.6 km/h 4.8 km/h 76 % 0 mm 83 W/m2
14:19 10.8 °C 6.7 °C 1023.2 hPa ESE 1.6 km/h 4.8 km/h 76 % 0 mm 77 W/m2
14:24 10.8 °C 6.9 °C 1022.9 hPa Calm   3.2 km/h 77 % 0 mm 79 W/m2
14:29 10.8 °C 6.9 °C 1023.2 hPa Calm   1.6 km/h 77 % 0 mm 91 W/m2
14:34 10.8 °C 6.9 °C 1022.9 hPa ESE 1.6 km/h 3.2 km/h 77 % 0 mm 86 W/m2
14:39 10.8 °C 6.9 °C 1022.9 hPa Calm   3.2 km/h 77 % 0 mm 97 W/m2
14:44 10.9 °C 7 °C 1022.9 hPa ESE 1.6 km/h 4.8 km/h 77 % 0 mm 69 W/m2
14:49 10.9 °C 7 °C 1022.9 hPa Calm   3.2 km/h 77 % 0 mm 60 W/m2
14:54 10.9 °C 7.2 °C 1022.9 hPa Calm   3.2 km/h 78 % 0 mm 53 W/m2
15:00 10.9 °C 7.2 °C 1022.9 hPa Calm     78 % 0 mm 63 W/m2
15:05 10.9 °C 7.4 °C 1022.9 hPa ESE 3.2 km/h 6.4 km/h 79 % 0 mm 69 W/m2
15:10 10.8 °C 7.3 °C 1022.9 hPa East 1.6 km/h 6.4 km/h 79 % 0 mm 56 W/m2
15:15 10.7 °C 7.2 °C 1022.9 hPa East 1.6 km/h 6.4 km/h 79 % 0 mm 46 W/m2
15:20 10.7 °C 7.2 °C 1022.9 hPa Calm   3.2 km/h 79 % 0 mm 40 W/m2
15:25 10.6 °C 7.3 °C 1022.9 hPa ESE 1.6 km/h 3.2 km/h 80 % 0 mm 33 W/m2
15:30 10.6 °C 7.3 °C 1022.9 hPa Calm   1.6 km/h 80 % 0 mm 21 W/m2
15:35 10.6 °C 7.3 °C 1022.9 hPa Calm   3.2 km/h 80 % 0 mm 11 W/m2
15:40 10.5 °C 7.4 °C 1022.9 hPa Calm   3.2 km/h 81 % 0 mm 7 W/m2
15:45 10.5 °C 7.4 °C 1022.9 hPa SE 1.6 km/h 6.4 km/h 81 % 0 mm 5 W/m2
15:50 10.4 °C 7.3 °C 1022.9 hPa SE 1.6 km/h 6.4 km/h 81 % 0 mm 5 W/m2
15:55 10.4 °C 7.4 °C 1022.9 hPa SE 1.6 km/h 6.4 km/h 82 % 0 mm 0 W/m2
16:00 10.3 °C 7.3 °C 1022.9 hPa SE 3.2 km/h 8 km/h 82 % 0 mm 0 W/m2
16:05 10.3 °C 7.3 °C 1022.6 hPa SE 1.6 km/h 6.4 km/h 82 % 0 mm 0 W/m2
16:10 10.2 °C 7.4 °C 1022.6 hPa SE 1.6 km/h 4.8 km/h 83 % 0 mm 0 W/m2
16:15 10.2 °C 7.4 °C 1022.2 hPa ESE 3.2 km/h 8 km/h 83 % 0 mm 0 W/m2
16:20 10.1 °C 7.5 °C 1022.6 hPa ESE 1.6 km/h 3.2 km/h 84 % 0 mm 0 W/m2
16:25 10.1 °C 7.5 °C 1022.2 hPa ESE 1.6 km/h 3.2 km/h 84 % 0 mm 0 W/m2
16:30 10.1 °C 7.5 °C 1022.2 hPa Calm   3.2 km/h 84 % 0 mm 0 W/m2
16:35 10.1 °C 7.7 °C 1022.2 hPa ESE 3.2 km/h 8 km/h 85 % 0 mm 0 W/m2
16:40 10.1 °C 7.7 °C 1022.2 hPa ESE 3.2 km/h 6.4 km/h 85 % 0 mm 0 W/m2
16:45 10.1 °C 7.9 °C 1022.2 hPa ESE 1.6 km/h 3.2 km/h 86 % 0 mm 0 W/m2
16:50 10.1 °C 7.9 °C 1022.2 hPa Calm   1.6 km/h 86 % 0 mm 0 W/m2
16:55 10.1 °C 7.9 °C 1022.2 hPa Calm   1.6 km/h 86 % 0 mm 0 W/m2
17:00 10.1 °C 7.9 °C 1022.2 hPa SE 4.8 km/h 8 km/h 86 % 0 mm 0 W/m2
17:05 10.2 °C 7.9 °C 1021.9 hPa SSE 1.6 km/h 8 km/h 86 % 0 mm 0 W/m2
17:10 10.2 °C 7.9 °C 1021.9 hPa SSE 4.8 km/h 9.7 km/h 86 % 0 mm 0 W/m2
17:15 10.2 °C 8.1 °C 1021.9 hPa Calm   3.2 km/h 87 % 0 mm 0 W/m2
17:20 10.2 °C 8.1 °C 1021.9 hPa Calm     87 % 0 mm 0 W/m2
17:25 10.2 °C 8.1 °C 1021.9 hPa Calm   3.2 km/h 87 % 0 mm 0 W/m2
17:30 10.2 °C 8.1 °C 1021.9 hPa Calm   1.6 km/h 87 % 0 mm 0 W/m2
17:35 10.2 °C 8.1 °C 1021.9 hPa Calm   1.6 km/h 87 % 0 mm 0 W/m2
17:40 10.2 °C 8.3 °C 1021.9 hPa Calm     88 % 0 mm 0 W/m2
17:45 10.2 °C 8.3 °C 1021.9 hPa Calm   3.2 km/h 88 % 0 mm 0 W/m2
17:50 10.2 °C 8.3 °C 1021.9 hPa South 1.6 km/h 6.4 km/h 88 % 0 mm 0 W/m2
17:55 10.2 °C 8.3 °C 1022.2 hPa Calm   3.2 km/h 88 % 0 mm 0 W/m2
18:00 10.3 °C 8.4 °C 1021.9 hPa SW 4.8 km/h 9.7 km/h 88 % 0 mm 0 W/m2
18:05 10.3 °C 8.4 °C 1021.9 hPa SW 1.6 km/h 8 km/h 88 % 0 mm 0 W/m2
18:10 10.3 °C 8.6 °C 1022.2 hPa SW 1.6 km/h 8 km/h 89 % 0 mm 0 W/m2
18:15 10.3 °C 8.6 °C 1021.9 hPa Calm     89 % 0 mm 0 W/m2
18:20 10.3 °C 8.6 °C 1021.9 hPa Calm     89 % 0 mm 0 W/m2
18:25 10.2 °C 8.4 °C 1021.9 hPa Calm   1.6 km/h 89 % 0 mm 0 W/m2
18:30 10.2 °C 8.4 °C 1021.9 hPa Calm   1.6 km/h 89 % 0 mm 0 W/m2
18:35 10.1 °C 8.4 °C 1021.9 hPa SW 3.2 km/h 6.4 km/h 89 % 0 mm 0 W/m2
18:40 10.1 °C 8.4 °C 1021.9 hPa Calm   3.2 km/h 89 % 0 mm 0 W/m2
18:45 10.1 °C 8.6 °C 1021.9 hPa SW 1.6 km/h 8 km/h 90 % 0 mm 0 W/m2
18:50 10 °C 8.3 °C 1021.9 hPa SW 1.6 km/h 6.4 km/h 89 % 0 mm 0 W/m2
18:55 10 °C 8.4 °C 1021.9 hPa Calm   3.2 km/h 90 % 0 mm 0 W/m2
19:00 10 °C 8.4 °C 1021.9 hPa SSW 1.6 km/h 3.2 km/h 90 % 0 mm 0 W/m2
19:05 10 °C 8.4 °C 1021.9 hPa Calm     90 % 0 mm 0 W/m2
19:10 10 °C 8.4 °C 1021.9 hPa Calm   3.2 km/h 90 % 0 mm 0 W/m2
19:16 10 °C 8.4 °C 1021.9 hPa SSW 1.6 km/h 6.4 km/h 90 % 0 mm 0 W/m2
19:21 10 °C 8.4 °C 1021.9 hPa SSW 1.6 km/h 6.4 km/h 90 % 0 mm 0 W/m2
19:26 10 °C 8.4 °C 1021.9 hPa SSE 1.6 km/h 4.8 km/h 90 % 0 mm 0 W/m2
19:31 10 °C 8.6 °C 1021.9 hPa South 1.6 km/h 6.4 km/h 91 % 0 mm 0 W/m2
19:36 10 °C 8.6 °C 1021.9 hPa Calm     91 % 0 mm 0 W/m2
19:41 10 °C 8.6 °C 1021.9 hPa Calm     91 % 0 mm 0 W/m2
19:46 10 °C 8.6 °C 1021.9 hPa Calm     91 % 0 mm 0 W/m2
19:51 10 °C 8.6 °C 1021.9 hPa Calm     91 % 0 mm 0 W/m2
19:56 10 °C 8.6 °C 1021.9 hPa Calm     91 % 0 mm 0 W/m2
20:01 9.9 °C 8.5 °C 1021.9 hPa Calm     91 % 0 mm 0 W/m2
20:06 9.9 °C 8.5 °C 1021.6 hPa Calm   3.2 km/h 91 % 0 mm 0 W/m2
20:11 9.9 °C 8.5 °C 1021.6 hPa SSE 1.6 km/h 8 km/h 91 % 0 mm 0 W/m2
20:16 9.9 °C 8.5 °C 1021.6 hPa Calm   3.2 km/h 91 % 0 mm 0 W/m2
20:21 9.9 °C 8.5 °C 1021.6 hPa Calm   3.2 km/h 91 % 0 mm 0 W/m2
20:26 9.9 °C 8.5 °C 1021.6 hPa SSW 3.2 km/h 9.7 km/h 91 % 0 mm 0 W/m2
20:27 9.9 °C 8.5 °C 1021.6 hPa SSW 1.6 km/h 6.4 km/h 91 % 0 mm 0 W/m2
20:32 9.9 °C 8.5 °C 1021.6 hPa Calm     91 % 0 mm 0 W/m2
20:37 9.9 °C 8.5 °C 1021.6 hPa Calm     91 % 0 mm 0 W/m2
20:42 9.9 °C 8.5 °C 1021.6 hPa Calm   3.2 km/h 91 % 0 mm 0 W/m2
20:48 9.9 °C 8.5 °C 1021.6 hPa SSW 1.6 km/h 4.8 km/h 91 % 0 mm 0 W/m2
20:53 9.9 °C 8.5 °C 1021.6 hPa Calm     91 % 0 mm 0 W/m2
20:58 9.9 °C 8.5 °C 1021.6 hPa Calm     91 % 0 mm 0 W/m2
21:03 9.9 °C 8.5 °C 1021.6 hPa Calm   3.2 km/h 91 % 0 mm 0 W/m2
21:08 9.9 °C 8.7 °C 1021.2 hPa Calm     92 % 0 mm 0 W/m2
21:13 9.9 °C 8.7 °C 1021.2 hPa SSW 1.6 km/h 6.4 km/h 92 % 0 mm 0 W/m2
21:18 9.9 °C 8.7 °C 1021.2 hPa Calm     92 % 0 mm 0 W/m2
21:23 9.9 °C 8.7 °C 1021.2 hPa SSW 3.2 km/h 6.4 km/h 92 % 0 mm 0 W/m2
21:28 9.8 °C 8.6 °C 1021.2 hPa South 6.4 km/h 12.9 km/h 92 % 0 mm 0 W/m2
21:33 9.8 °C 8.6 °C 1021.2 hPa South 8 km/h 12.9 km/h 92 % 0 mm 0 W/m2
21:38 9.8 °C 8.6 °C 1021.2 hPa SSW 9.7 km/h 12.9 km/h 92 % 0 mm 0 W/m2
21:48 9.9 °C 8.7 °C 1020.9 hPa South 11.3 km/h 17.7 km/h 92 % 0 mm 0 W/m2
21:53 9.9 °C 8.7 °C 1020.9 hPa South 11.3 km/h 14.5 km/h 92 % 0 mm 0 W/m2
21:58 9.9 °C 8.8 °C 1020.9 hPa SSW 8 km/h 14.5 km/h 93 % 0 mm 0 W/m2
22:03 9.9 °C 8.8 °C 1020.9 hPa SSW 6.4 km/h 9.7 km/h 93 % 0 mm 0 W/m2
22:08 9.9 °C 8.7 °C 1020.9 hPa SSW 3.2 km/h 9.7 km/h 92 % 0 mm 0 W/m2
22:13 9.9 °C 8.7 °C 1020.9 hPa SSW 3.2 km/h 8 km/h 92 % 0 mm 0 W/m2
22:18 9.9 °C 8.7 °C 1020.9 hPa SSW 3.2 km/h 8 km/h 92 % 0 mm 0 W/m2
22:23 9.9 °C 8.7 °C 1020.9 hPa SSW 4.8 km/h 11.3 km/h 92 % 0 mm 0 W/m2
22:28 9.8 °C 8.6 °C 1020.9 hPa Calm   3.2 km/h 92 % 0 mm 0 W/m2
22:33 9.8 °C 8.6 °C 1020.5 hPa SSW 6.4 km/h 9.7 km/h 92 % 0 mm 0 W/m2
22:38 9.8 °C 8.6 °C 1020.5 hPa Calm     92 % 0 mm 0 W/m2
22:43 9.7 °C 8.4 °C 1020.5 hPa Calm   3.2 km/h 92 % 0 mm 0 W/m2
22:46 9.7 °C 8.4 °C 1020.5 hPa SSW 3.2 km/h 8 km/h 92 % 0 mm 0 W/m2
22:51 9.6 °C 8.4 °C 1020.5 hPa Calm   4.8 km/h 92 % 0 mm 0 W/m2
23:01 9.4 °C 8.2 °C 1020.5 hPa SSW 3.2 km/h 8 km/h 92 % 0 mm 0 W/m2
23:06 9.4 °C 8.2 °C 1020.2 hPa SSW 3.2 km/h 6.4 km/h 92 % 0 mm 0 W/m2
23:11 9.3 °C 8.2 °C 1020.5 hPa SSW 6.4 km/h 9.7 km/h 93 % 0 mm 0 W/m2
23:16 9.3 °C 8.2 °C 1020.5 hPa South 6.4 km/h 11.3 km/h 93 % 0 mm 0 W/m2
23:21 9.3 °C 8.2 °C 1020.5 hPa SSE 8 km/h 9.7 km/h 93 % 0 mm 0 W/m2
23:26 9.3 °C 8.2 °C 1020.2 hPa SSE 8 km/h 12.9 km/h 93 % 0 mm 0 W/m2
23:31 9.3 °C 8.2 °C 1020.2 hPa SE 8 km/h 11.3 km/h 93 % 0 mm 0 W/m2
23:36 9.3 °C 8.2 °C 1020.2 hPa SE 4.8 km/h 9.7 km/h 93 % 0 mm 0 W/m2
23:41 9.2 °C 8.1 °C 1020.2 hPa SE 3.2 km/h 6.4 km/h 93 % 0 mm 0 W/m2
23:46 9.2 °C 8.1 °C 1020.2 hPa Calm     93 % 0 mm 0 W/m2
23:51 9.1 °C 8 °C 1020.2 hPa Calm   1.6 km/h 93 % 0 mm 0 W/m2
23:56 9.1 °C 8 °C 1019.9 hPa Calm   1.6 km/h 93 % 0 mm 0 W/m2
Delerius-Weather
Compliments of Weather Underground - 2.25 mb

Data updates at regular intervals.